Relevés horaires Beauvechain (Belgique)


Relevés horaires à Beauvechain - Dimanche 01 Oct. 2017
Heure UTC1 Température [°C] Vent [km/h] Hum. [%] Pres.4 [hPa] Visi. [Km] Nébu. [octa] Préc.5 [mm] Cond.
2m. Res. Ros. Dir.2 Vit. Moy. Raf.3
23:00 14.6 13.8 11.7 S 13.0 -- 20.4 83 1015.2(-1.7/3h) 20 -- -- --
22:00 14.5 13.7 11.5 S 13.0 -- 20.4 82 1016.1(-1.0/3h) 20 -- -- --
21:00 14.3 13.6 11.3 S 11.1 -- 18.5 82 1016.2(-1.1/3h) 20 -- -- --
20:00 14.3 13.6 11.0 S 11.1 -- 18.5 81 1017(-0.4/3h) 20 -- -- --
19:00 14.2 13.5 10.4 S 11.1 -- 18.5 78 1017.2(-0.3/3h) 20 -- -- --
18:00 14.6 13.8 10.1 S 13.0 -- 20.4 74 1017.5(-0.5/3h) 20 -- -- --
17:00 15.0 14.5 10.1 S 11.1 -- 18.5 72 1017.5(-0.5/3h) 20 -- -- --
16:00 15.6 15.2 9.7 S 11.1 -- 18.5 68 1017.3(-0.9/3h) 20 -- -- --
15:00 16.1 15.8 9.2 S 11.1 -- 20.4 64 1017.8(-0.6/3h) 20 -- -- --
14:00 16.3 16 9.4 S 11.1 -- 20.4 64 1018(-1.1/3h) 20 -- -- --
13:00 16.0 15.7 9.8 S 11.1 -- 20.4 67 1018.3(-0.7/3h) 20 -- -- --
12:00 16.0 15.5 9.5 S 13.0 -- 22.2 65 1018.6(-0.8/3h) 20 -- -- --
11:00 16.2 15.7 10.0 S 13.0 -- 20.4 67 1019.2(-0.2/3h) 20 -- -- --
10:00 15.1 14.4 9.0 S 13.0 -- 20.4 67 1019.2(-0.3/3h) 20 -- -- --
09:00 13.9 13.4 9.1 S 9.3 -- 14.8 73 1019.5(0.2/3h) 20 -- -- --
08:00 13.0 12.6 9.1 SSE 7.4 -- 13.0 77 1019.6(0.0/3h) 20 -- -- --
07:00 11.5 11.3 8.8 S 5.6 -- 11.1 83 1019.7(0.0/3h) 20 -- -- --
06:00 10.6 9.8 8.3 S 7.4 -- 13.0 86 1019.5(-0.1/3h) 20 -- -- --
05:00 10.8 10.1 8.2 S 7.4 -- 11.1 84 1019.7(0.0/3h) 20 -- -- --
04:00 10.8 10.1 8.3 S 7.4 -- 11.1 85 1019.7(0.0/3h) 20 -- -- --
03:00 11.3 10.3 8.5 S 9.3 -- 13.0 83 1019.6(0.0/3h) 20 -- -- --
02:00 11.6 11 8.8 S 7.4 -- 11.1 83 1019.7(0.0/3h) 20 -- -- --
01:00 11.6 11 8.8 S 7.4 -- 11.1 83 1019.7(0.0/3h) 20 -- -- --
00:00 11.3 10.7 8.8 S 7.4 -- 11.1 85 1019.5(-0.4/3h) 20 -- -- --

1 Coordinated Universal Time. Actuellement il est 23:00 locale et 21:00 UTC.

2 Le vent souffle depuis la direction indiquée vers la direction oposée.

3 Les rafales max. sont disponible 40 min après l'heure du relevé.

4 Pour les stations d'altitude (plus de 600m) le géopotentiel du niveau le plus proche de la pression obligatoire est indiqué.

5 Les stations disposant d'un diffuseur peuvent indiquer "trace". Cela signifie que des précipitations ont touchés le sol mais que la quantité est inférieure à 0.1 mm.

Récapitulatif de la journée
Température [°C] Vent [km/h] Ensoleillement4 [h] Precipitations totale5 [mm] Pression [Hpa]
Min1 Max.2 Moy.3 Max. Min Max.
10.3 16.5 0 22.2 0 h 0 min 0 1015.2 1019.7

1 Température minimale relevée entre 18:00 UTC la veille et 18:00 UTC le jour donné.

2 Température maximale relevée entre 06:00 UTC le jour donné et 06:00 UTC le lendemain.

3 Vent moyen de la journée basé sur les relevés horaires.

4 Ensoleillement en heures relevé entre 06:00 UTC la veille et 06:00 UTC le jour donné.

5 Précipitations totales tombées entre 06:00 UTC la jour donné et 06:00 UTC le lendemain.

Graphiques horaires